Time;durP1;ratioP1;P1;durP2;ratioP2;P2;SDS_P1;SDS_P2;PMS_P1;PMS_P2;Temp;Humidity;BMP_temperature;BMP_pressure;BME280_temperature;BME280_humidity;BME280_pressure;Samples;Min_cycle;Max_cycle;Signal;HPM_P1;HPM_P2
2022/01/01 00:00:09;;;;;;;13.70;5.72;;;13.30;98.10;;;;;;5030780;28;20029;-68
2022/01/01 00:02:43;;;;;;;19.13;7.30;;;13.30;98.10;;;;;;5032414;28;20071;-69
2022/01/01 00:05:10;;;;;;;16.52;6.65;;;13.20;98.10;;;;;;5030559;28;20026;-68
2022/01/01 00:07:39;;;;;;;15.48;5.40;;;13.20;98.10;;;;;;5034268;28;20069;-68
2022/01/01 00:10:06;;;;;;;26.67;8.73;;;13.20;98.10;;;;;;5032424;28;21096;-74
2022/01/01 00:12:32;;;;;;;29.35;11.90;;;13.20;98.20;;;;;;5035503;28;20032;-69
2022/01/01 00:14:58;;;;;;;21.52;6.22;;;13.10;98.40;;;;;;5043779;28;20040;-69
2022/01/01 00:17:23;;;;;;;22.00;6.10;;;13.20;98.20;;;;;;5047724;28;20060;-69
2022/01/01 00:19:49;;;;;;;25.15;8.18;;;13.10;98.10;;;;;;5041795;28;20043;-69
2022/01/01 00:22:15;;;;;;;19.30;9.35;;;13.10;98.10;;;;;;5036833;28;20096;-69
2022/01/01 00:24:40;;;;;;;18.45;5.72;;;13.10;98.10;;;;;;5035338;28;20029;-69
2022/01/01 00:27:07;;;;;;;19.52;7.85;;;13.10;98.10;;;;;;5035998;28;20040;-69
2022/01/01 00:29:32;;;;;;;10.82;5.78;;;13.20;98.10;;;;;;5051396;28;20041;-69
2022/01/01 00:31:58;;;;;;;14.35;6.97;;;13.20;98.10;;;;;;5036902;28;20025;-69
2022/01/01 00:34:26;;;;;;;29.65;10.00;;;13.20;98.00;;;;;;5044042;28;20037;-69
2022/01/01 00:36:52;;;;;;;35.40;16.52;;;13.20;97.90;;;;;;5035602;28;20027;-69
2022/01/01 00:39:18;;;;;;;32.70;14.98;;;13.20;97.90;;;;;;5044477;28;20029;-69
2022/01/01 00:41:43;;;;;;;32.28;13.57;;;13.20;97.80;;;;;;5053026;28;20017;-69
2022/01/01 00:44:09;;;;;;;32.47;14.20;;;13.20;97.80;;;;;;5053359;28;20393;-69
2022/01/01 00:46:34;;;;;;;23.98;11.95;;;13.20;97.80;;;;;;5040007;28;20040;-69
2022/01/01 00:49:00;;;;;;;33.47;15.00;;;13.10;97.90;;;;;;5052840;28;20033;-69
2022/01/01 00:51:26;;;;;;;28.15;13.13;;;13.10;97.90;;;;;;5035951;28;20040;-69
2022/01/01 00:53:52;;;;;;;30.00;13.95;;;13.10;97.90;;;;;;5045529;28;20040;-69
2022/01/01 00:56:18;;;;;;;25.85;9.07;;;13.10;97.90;;;;;;5052276;28;20033;-70
2022/01/01 00:58:44;;;;;;;37.63;16.17;;;13.10;97.90;;;;;;5041095;28;20083;-66
2022/01/01 01:01:12;;;;;;;41.83;15.32;;;13.10;98.00;;;;;;5039342;28;20021;-69
2022/01/01 01:03:38;;;;;;;23.85;11.50;;;13.00;98.00;;;;;;5039645;28;20030;-70
2022/01/01 01:06:03;;;;;;;34.22;9.73;;;13.00;98.00;;;;;;5052567;28;20034;-68
2022/01/01 01:08:30;;;;;;;30.92;13.90;;;13.00;98.00;;;;;;5053270;28;20025;-69
2022/01/01 01:10:57;;;;;;;24.73;11.05;;;13.00;98.00;;;;;;5051997;28;20139;-69
2022/01/01 01:13:24;;;;;;;6.47;4.70;;;13.00;98.00;;;;;;5052908;28;20037;-69
2022/01/01 01:15:50;;;;;;;18.35;7.18;;;13.00;97.90;;;;;;5052124;28;20021;-69
2022/01/01 01:18:16;;;;;;;23.70;10.27;;;13.10;98.00;;;;;;5051076;28;20037;-69
2022/01/01 01:20:42;;;;;;;12.93;5.25;;;13.10;97.90;;;;;;5032940;28;20396;-69
2022/01/01 01:23:08;;;;;;;27.65;8.77;;;13.00;97.90;;;;;;5045781;28;20125;-69
2022/01/01 01:25:40;;;;;;;21.98;6.47;;;13.00;97.90;;;;;;5032344;28;20044;-68
2022/01/01 01:28:10;;;;;;;15.27;4.22;;;13.00;97.90;;;;;;5045872;28;20401;-69
2022/01/01 01:30:37;;;;;;;22.50;5.30;;;13.00;97.80;;;;;;5032989;28;20099;-69
2022/01/01 01:33:04;;;;;;;18.70;6.28;;;13.10;97.80;;;;;;5049364;28;20040;-69
2022/01/01 01:35:32;;;;;;;19.48;4.82;;;13.00;97.70;;;;;;5041830;28;20056;-69
2022/01/01 01:38:01;;;;;;;10.15;4.45;;;13.00;97.70;;;;;;5050416;28;20029;-69
2022/01/01 01:40:27;;;;;;;19.33;5.63;;;13.00;97.70;;;;;;5052706;28;20381;-69
2022/01/01 01:42:53;;;;;;;20.83;6.80;;;13.00;97.60;;;;;;5052226;28;20033;-69
2022/01/01 01:45:21;;;;;;;13.98;5.47;;;13.00;97.60;;;;;;5051808;28;20119;-69
2022/01/01 01:47:48;;;;;;;15.45;4.78;;;13.00;97.60;;;;;;5039103;28;20036;-69
2022/01/01 01:50:17;;;;;;;27.27;7.18;;;13.00;97.60;;;;;;5043449;28;20040;-69
2022/01/01 01:52:47;;;;;;;19.48;6.25;;;12.90;97.60;;;;;;5040884;28;20025;-69
2022/01/01 01:55:13;;;;;;;19.65;7.22;;;13.00;97.60;;;;;;5050572;28;20040;-69
2022/01/01 01:57:41;;;;;;;14.70;6.00;;;12.90;97.50;;;;;;5044861;28;20131;-69
2022/01/01 02:00:22;;;;;;;12.20;4.47;;;12.90;97.50;;;;;;5044160;28;20044;-69
2022/01/01 02:02:48;;;;;;;13.77;6.13;;;12.90;97.50;;;;;;5048689;28;20025;-69
2022/01/01 02:05:14;;;;;;;17.45;6.38;;;12.90;97.50;;;;;;5045532;28;20087;-69
2022/01/01 02:07:41;;;;;;;21.08;6.38;;;12.90;97.40;;;;;;5045781;28;20041;-69
2022/01/01 02:10:08;;;;;;;9.10;4.32;;;12.90;97.50;;;;;;5045447;28;20043;-69
2022/01/01 02:12:34;;;;;;;20.10;6.43;;;12.90;97.50;;;;;;5052548;28;20029;-69
2022/01/01 02:17:29;;;;;;;18.80;6.63;;;12.90;97.40;;;;;;5032545;28;20071;-70
2022/01/01 02:20:15;;;;;;;12.18;5.18;;;12.90;97.40;;;;;;5046866;28;20098;-69
2022/01/01 02:22:50;;;;;;;10.23;3.85;;;12.80;97.30;;;;;;5052529;28;20087;-69
2022/01/01 02:25:19;;;;;;;4.28;2.78;;;12.80;97.20;;;;;;5038747;28;20051;-69
2022/01/01 02:27:45;;;;;;;15.77;5.88;;;12.90;97.20;;;;;;5054852;28;20029;-69
2022/01/01 02:30:14;;;;;;;19.33;6.78;;;12.80;97.20;;;;;;5056144;28;20098;-70
2022/01/01 02:32:40;;;;;;;15.35;5.28;;;12.80;97.20;;;;;;5042873;28;20040;-70
2022/01/01 02:35:08;;;;;;;21.63;7.20;;;12.80;97.20;;;;;;5055439;28;20033;-70
2022/01/01 02:37:35;;;;;;;26.50;7.72;;;12.80;97.20;;;;;;5054171;28;20602;-69
2022/01/01 02:40:01;;;;;;;18.58;7.05;;;12.80;97.20;;;;;;5036210;28;20033;-69
2022/01/01 02:42:27;;;;;;;16.92;6.88;;;12.80;97.20;;;;;;5048344;28;20040;-69
2022/01/01 02:44:54;;;;;;;19.85;7.10;;;12.90;97.10;;;;;;5035993;28;20168;-69
2022/01/01 02:47:20;;;;;;;28.20;8.52;;;12.80;97.00;;;;;;5038423;28;20087;-70
2022/01/01 02:49:46;;;;;;;27.00;8.68;;;12.70;97.10;;;;;;5055125;28;20041;-70
2022/01/01 02:52:11;;;;;;;16.98;6.32;;;12.70;97.10;;;;;;5055712;28;20483;-69
2022/01/01 02:54:37;;;;;;;29.17;9.98;;;12.70;97.20;;;;;;5045908;28;20492;-69
2022/01/01 02:57:03;;;;;;;29.25;10.10;;;12.70;97.40;;;;;;5049334;28;20465;-69
2022/01/01 02:59:28;;;;;;;32.45;11.82;;;12.60;97.40;;;;;;5048629;28;20119;-69
2022/01/01 03:01:54;;;;;;;24.83;9.57;;;12.60;97.50;;;;;;5052715;28;20028;-69
2022/01/01 03:04:20;;;;;;;36.60;12.10;;;12.60;97.70;;;;;;5053543;28;20052;-70
2022/01/01 03:06:52;;;;;;;31.00;10.68;;;12.50;97.80;;;;;;5055420;28;20024;-70
2022/01/01 03:09:18;;;;;;;29.83;12.37;;;12.50;97.90;;;;;;5050256;28;20033;-69
2022/01/01 03:11:44;;;;;;;22.58;9.32;;;12.50;97.90;;;;;;5046108;28;20053;-70
2022/01/01 03:14:12;;;;;;;40.95;12.13;;;12.50;97.90;;;;;;5036846;28;20095;-70
2022/01/01 03:16:37;;;;;;;21.63;11.20;;;12.50;98.00;;;;;;5045318;28;20029;-70
2022/01/01 03:19:03;;;;;;;43.35;12.98;;;12.50;98.00;;;;;;5041905;28;20116;-70
2022/01/01 03:21:29;;;;;;;39.10;15.63;;;12.50;98.00;;;;;;5047196;28;20036;-70
2022/01/01 03:23:54;;;;;;;38.72;14.45;;;12.50;98.00;;;;;;5049363;28;20427;-70
2022/01/01 03:26:20;;;;;;;23.60;11.50;;;12.50;98.10;;;;;;5046466;28;20029;-69
2022/01/01 03:28:46;;;;;;;43.97;13.70;;;12.50;98.10;;;;;;5034761;28;20025;-69
2022/01/01 03:31:11;;;;;;;45.10;16.77;;;12.50;98.10;;;;;;5043718;28;20045;-70
2022/01/01 03:33:40;;;;;;;42.95;13.73;;;12.50;98.20;;;;;;5046219;28;20025;-69
2022/01/01 03:36:05;;;;;;;29.02;12.40;;;12.40;98.30;;;;;;5054866;28;20131;-69
2022/01/01 03:38:31;;;;;;;26.73;9.13;;;12.50;98.40;;;;;;5053385;28;20123;-69
2022/01/01 03:40:57;;;;;;;34.92;9.88;;;12.40;98.50;;;;;;5039788;28;20029;-69
2022/01/01 03:43:22;;;;;;;32.47;10.23;;;12.40;98.50;;;;;;5043273;28;20037;-69
2022/01/01 03:45:51;;;;;;;32.80;10.63;;;12.40;98.50;;;;;;5054018;28;20154;-69
2022/01/01 03:48:16;;;;;;;29.95;10.18;;;12.50;98.50;;;;;;5054760;28;20037;-69
2022/01/01 03:50:42;;;;;;;38.72;12.80;;;12.50;98.50;;;;;;5051286;28;20057;-69
2022/01/01 03:53:09;;;;;;;32.22;10.77;;;12.50;98.50;;;;;;5042686;28;20032;-69
2022/01/01 03:55:35;;;;;;;30.52;9.98;;;12.50;98.50;;;;;;5038697;28;20053;-69
2022/01/01 03:58:00;;;;;;;40.63;12.65;;;12.50;98.50;;;;;;5043644;28;20052;-69
2022/01/01 04:00:26;;;;;;;29.45;10.32;;;12.50;98.50;;;;;;5053770;28;20039;-70
2022/01/01 04:02:52;;;;;;;27.77;8.43;;;12.50;98.40;;;;;;5054706;28;20037;-69
2022/01/01 04:05:18;;;;;;;38.38;11.57;;;12.50;98.50;;;;;;5037798;28;20030;-69
2022/01/01 04:07:43;;;;;;;38.35;12.43;;;12.50;98.40;;;;;;5040639;28;20032;-69
2022/01/01 04:10:09;;;;;;;23.20;8.38;;;12.50;98.50;;;;;;5053807;28;20040;-69
2022/01/01 04:12:35;;;;;;;25.77;9.65;;;12.50;98.50;;;;;;5046743;28;20037;-69
2022/01/01 04:15:02;;;;;;;41.28;12.55;;;12.50;98.50;;;;;;5047817;28;20124;-69
2022/01/01 04:17:28;;;;;;;28.55;11.82;;;12.50;98.50;;;;;;5054342;28;20066;-69
2022/01/01 04:19:53;;;;;;;28.58;9.82;;;12.50;98.50;;;;;;5038454;28;20037;-70
2022/01/01 04:22:19;;;;;;;22.67;9.85;;;12.50;98.50;;;;;;5042559;28;20037;-69
2022/01/01 04:24:45;;;;;;;24.92;9.77;;;12.60;98.50;;;;;;5040647;28;20045;-69
2022/01/01 04:27:10;;;;;;;27.05;9.98;;;12.60;98.50;;;;;;5044366;28;20037;-69
2022/01/01 04:29:38;;;;;;;22.60;9.43;;;12.60;98.50;;;;;;5047574;28;20041;-69
2022/01/01 04:32:04;;;;;;;27.90;11.13;;;12.60;98.40;;;;;;5042790;28;20052;-69
2022/01/01 04:34:30;;;;;;;31.98;10.93;;;12.60;98.40;;;;;;5036732;28;20060;-69
2022/01/01 04:37:02;;;;;;;24.10;7.32;;;12.60;98.40;;;;;;5043958;28;20094;-69
2022/01/01 04:39:28;;;;;;;28.42;8.68;;;12.60;98.40;;;;;;5035882;28;20052;-69
2022/01/01 04:41:56;;;;;;;18.23;7.18;;;12.60;98.30;;;;;;5044329;28;20479;-69
2022/01/01 04:44:22;;;;;;;23.23;10.00;;;12.60;98.30;;;;;;5034871;28;20526;-69
2022/01/01 04:46:48;;;;;;;21.85;6.28;;;12.60;98.30;;;;;;5033829;28;20033;-69
2022/01/01 04:49:14;;;;;;;15.77;4.90;;;12.60;98.30;;;;;;5051164;28;20052;-69
2022/01/01 04:51:39;;;;;;;23.55;8.07;;;12.60;98.30;;;;;;5052648;28;20063;-69
2022/01/01 04:54:15;;;;;;;11.93;5.63;;;12.60;98.20;;;;;;5040071;28;20145;-69
2022/01/01 04:56:44;;;;;;;16.58;5.78;;;12.70;98.20;;;;;;5039358;28;20088;-69
2022/01/01 04:59:11;;;;;;;24.25;6.70;;;12.60;98.10;;;;;;5053228;28;20025;-69
2022/01/01 05:01:37;;;;;;;18.83;6.40;;;12.70;98.20;;;;;;5040875;28;20068;-69
2022/01/01 05:04:03;;;;;;;22.05;7.55;;;12.70;98.10;;;;;;5043708;28;20060;-69
2022/01/01 05:06:28;;;;;;;15.30;5.65;;;12.70;98.00;;;;;;5046243;28;20144;-69
2022/01/01 05:08:54;;;;;;;22.67;7.43;;;12.80;98.00;;;;;;5045996;28;20032;-69
2022/01/01 05:11:26;;;;;;;19.45;6.15;;;12.80;98.00;;;;;;5032671;28;20037;-70
2022/01/01 05:13:52;;;;;;;24.23;7.30;;;12.80;97.90;;;;;;5050998;28;20427;-69
2022/01/01 05:16:19;;;;;;;30.58;9.38;;;12.80;97.90;;;;;;5052283;28;20032;-69
2022/01/01 05:18:45;;;;;;;14.23;6.60;;;12.80;97.80;;;;;;5034418;28;20151;-69
2022/01/01 05:21:11;;;;;;;24.75;6.68;;;12.80;97.70;;;;;;5044501;28;20029;-69
2022/01/01 05:23:37;;;;;;;21.40;4.07;;;12.90;97.70;;;;;;5052155;28;20031;-69
2022/01/01 05:26:03;;;;;;;13.50;4.72;;;12.90;97.70;;;;;;5040290;28;20104;-69
2022/01/01 05:28:29;;;;;;;17.77;5.80;;;12.90;97.60;;;;;;5045874;28;20408;-69
2022/01/01 05:30:55;;;;;;;25.40;9.07;;;12.90;97.60;;;;;;5032073;28;20037;-69
2022/01/01 05:33:20;;;;;;;25.27;7.82;;;12.90;97.60;;;;;;5045922;28;20026;-69
2022/01/01 05:35:46;;;;;;;38.28;13.68;;;12.90;97.60;;;;;;5045783;28;20452;-69
2022/01/01 05:38:12;;;;;;;30.20;11.82;;;12.90;97.60;;;;;;5032006;28;20083;-69
2022/01/01 05:40:37;;;;;;;29.85;11.13;;;12.90;97.60;;;;;;5046765;28;20379;-69
2022/01/01 05:43:03;;;;;;;27.75;9.48;;;12.90;97.70;;;;;;5052559;28;20516;-69
2022/01/01 05:45:32;;;;;;;38.88;13.18;;;12.80;97.80;;;;;;5038609;28;20037;-69
2022/01/01 05:47:57;;;;;;;25.73;11.27;;;12.80;97.90;;;;;;5044164;28;20021;-69
2022/01/01 05:50:23;;;;;;;42.45;15.43;;;12.80;98.00;;;;;;5033350;28;20049;-69
2022/01/01 05:52:49;;;;;;;38.33;16.58;;;12.70;98.00;;;;;;5042971;28;20045;-69
2022/01/01 05:55:15;;;;;;;44.85;17.90;;;12.70;98.00;;;;;;5034992;28;20033;-69
2022/01/01 05:57:41;;;;;;;53.45;20.35;;;12.70;98.10;;;;;;5052207;28;20090;-69
2022/01/01 06:00:07;;;;;;;36.20;12.75;;;12.60;98.20;;;;;;5048540;28;20026;-69
2022/01/01 06:02:43;;;;;;;46.13;18.45;;;12.60;98.30;;;;;;5041822;28;20044;-69
2022/01/01 06:05:09;;;;;;;49.75;17.75;;;12.60;98.40;;;;;;5038765;28;20036;-69
2022/01/01 06:07:35;;;;;;;47.15;18.63;;;12.60;98.50;;;;;;5044352;28;20387;-69
2022/01/01 06:10:04;;;;;;;42.88;15.32;;;12.50;98.50;;;;;;5052299;28;20041;-69
2022/01/01 06:12:30;;;;;;;42.97;15.95;;;12.60;98.60;;;;;;5051754;28;20025;-69
2022/01/01 06:14:55;;;;;;;35.92;14.95;;;12.50;98.60;;;;;;5039567;28;20037;-69
2022/01/01 06:17:21;;;;;;;54.30;16.35;;;12.50;98.70;;;;;;5052282;28;20033;-69
2022/01/01 06:19:47;;;;;;;33.58;13.80;;;12.50;98.70;;;;;;5050704;28;20040;-69
2022/01/01 06:22:13;;;;;;;28.60;11.30;;;12.50;98.70;;;;;;5040005;28;20025;-69
2022/01/01 06:24:39;;;;;;;26.27;11.35;;;12.50;98.70;;;;;;5052016;28;20039;-69
2022/01/01 06:27:08;;;;;;;29.77;12.68;;;12.60;98.70;;;;;;5051354;28;20468;-69
2022/01/01 06:29:36;;;;;;;32.40;11.73;;;12.60;98.70;;;;;;5051907;28;20159;-69
2022/01/01 06:32:02;;;;;;;18.63;8.70;;;12.60;98.60;;;;;;5050149;28;20036;-69
2022/01/01 06:34:27;;;;;;;29.15;11.05;;;12.60;98.60;;;;;;5037996;28;20025;-69
2022/01/01 06:36:54;;;;;;;26.92;9.02;;;12.70;98.60;;;;;;5052095;28;20044;-69
2022/01/01 06:39:19;;;;;;;16.80;5.15;;;12.70;98.60;;;;;;5038535;28;20033;-69
2022/01/01 06:41:48;;;;;;;32.00;10.40;;;12.70;98.50;;;;;;5041261;28;20044;-69
2022/01/01 06:44:14;;;;;;;28.98;6.60;;;12.70;98.50;;;;;;5032000;28;20041;-69
2022/01/01 06:46:40;;;;;;;22.27;9.38;;;12.80;98.50;;;;;;5032168;28;20022;-69
2022/01/01 06:49:05;;;;;;;33.15;10.88;;;12.70;98.40;;;;;;5048705;28;20043;-68
2022/01/01 06:51:32;;;;;;;27.65;10.52;;;12.80;98.40;;;;;;5052161;28;20041;-70
2022/01/01 06:53:58;;;;;;;14.32;7.10;;;12.80;98.30;;;;;;5038542;28;20025;-69
2022/01/01 06:56:24;;;;;;;9.90;4.70;;;12.80;98.20;;;;;;5039035;28;20092;-70
2022/01/01 06:58:52;;;;;;;15.90;5.20;;;12.80;98.20;;;;;;5050864;28;20110;-70
2022/01/01 07:01:18;;;;;;;23.52;9.00;;;12.80;98.20;;;;;;5051928;28;20106;-70
2022/01/01 07:03:43;;;;;;;19.40;6.57;;;12.80;98.20;;;;;;5039800;28;20485;-69
2022/01/01 07:06:09;;;;;;;13.82;5.38;;;12.80;98.20;;;;;;5030807;28;20393;-69
2022/01/01 07:08:34;;;;;;;18.63;8.98;;;12.80;98.20;;;;;;5032009;28;20034;-69
2022/01/01 07:11:00;;;;;;;11.93;5.82;;;12.90;98.20;;;;;;5031406;28;20106;-69
2022/01/01 07:13:26;;;;;;;12.43;5.95;;;12.90;98.10;;;;;;5032441;28;20025;-69
2022/01/01 07:15:52;;;;;;;22.70;7.93;;;12.90;98.10;;;;;;5034702;28;20520;-69
2022/01/01 07:18:18;;;;;;;10.55;5.43;;;12.90;98.00;;;;;;5052412;28;20025;-73
2022/01/01 07:20:43;;;;;;;18.77;7.10;;;12.90;98.00;;;;;;5055406;28;20389;-69
2022/01/01 07:23:10;;;;;;;9.10;3.92;;;12.90;98.00;;;;;;5050034;28;20103;-69
2022/01/01 07:25:36;;;;;;;19.25;6.68;;;13.00;98.10;;;;;;5046486;28;20047;-69
2022/01/01 07:28:02;;;;;;;14.07;6.28;;;12.90;98.00;;;;;;5054887;28;20017;-69
2022/01/01 07:30:28;;;;;;;6.38;3.92;;;13.00;98.10;;;;;;5054137;28;20041;-69
2022/01/01 07:32:57;;;;;;;15.80;4.38;;;12.90;98.00;;;;;;5054994;28;20091;-69
2022/01/01 07:35:26;;;;;;;23.20;7.10;;;13.00;98.00;;;;;;5055152;28;20054;-69
2022/01/01 07:37:52;;;;;;;15.80;6.45;;;13.00;98.00;;;;;;5053825;28;20473;-69
2022/01/01 07:40:19;;;;;;;18.88;5.72;;;13.00;98.00;;;;;;5054594;28;20036;-69
2022/01/01 07:42:45;;;;;;;13.68;4.60;;;13.00;98.00;;;;;;5054966;28;20116;-69
2022/01/01 07:45:12;;;;;;;17.73;7.03;;;13.00;98.00;;;;;;5040213;28;20055;-69
2022/01/01 07:47:37;;;;;;;10.43;4.55;;;13.00;98.00;;;;;;5035570;28;20847;-69
2022/01/01 07:50:07;;;;;;;17.50;5.00;;;13.00;98.00;;;;;;5049334;28;20128;-69
2022/01/01 07:52:33;;;;;;;15.35;7.80;;;13.00;98.00;;;;;;5053866;28;20480;-69
2022/01/01 07:54:59;;;;;;;16.20;5.75;;;13.00;98.00;;;;;;5052000;28;20067;-69
2022/01/01 07:57:24;;;;;;;15.70;6.57;;;13.00;98.00;;;;;;5043738;28;20615;-69
2022/01/01 07:59:50;;;;;;;23.92;3.22;;;13.00;98.00;;;;;;5037404;28;20029;-69
2022/01/01 08:02:16;;;;;;;24.33;6.20;;;13.00;98.10;;;;;;5034492;28;20034;-69
2022/01/01 08:04:45;;;;;;;12.85;5.03;;;13.00;98.10;;;;;;5050896;28;20031;-69
2022/01/01 08:07:11;;;;;;;21.52;5.00;;;13.00;98.10;;;;;;5053257;28;20499;-69
2022/01/01 08:09:38;;;;;;;3.65;2.17;;;13.00;98.10;;;;;;5044874;28;20068;-69
2022/01/01 08:12:06;;;;;;;12.38;5.28;;;13.00;98.10;;;;;;5046372;28;20500;-69
2022/01/01 08:14:31;;;;;;;14.02;4.38;;;13.10;98.10;;;;;;5034213;28;20072;-69
2022/01/01 08:17:07;;;;;;;13.30;4.75;;;13.00;98.10;;;;;;5047377;28;20053;-69
2022/01/01 08:19:32;;;;;;;13.75;4.20;;;13.10;98.10;;;;;;5033639;28;20469;-69
2022/01/01 08:21:59;;;;;;;12.95;4.60;;;13.10;98.10;;;;;;5047129;28;20100;-69
2022/01/01 08:24:24;;;;;;;26.60;8.23;;;13.10;98.10;;;;;;5046343;28;20037;-69
2022/01/01 08:26:52;;;;;;;8.80;4.03;;;13.10;98.00;;;;;;5053003;28;20127;-69
2022/01/01 08:29:18;;;;;;;21.80;6.75;;;13.20;98.00;;;;;;5041448;28;20041;-69
2022/01/01 08:31:44;;;;;;;15.10;6.18;;;13.20;97.90;;;;;;5033469;28;20370;-70
2022/01/01 08:34:10;;;;;;;20.17;7.68;;;13.20;97.90;;;;;;5032098;28;20037;-69
2022/01/01 08:36:36;;;;;;;21.60;4.20;;;13.30;97.80;;;;;;5035821;28;20504;-70
2022/01/01 08:39:05;;;;;;;25.63;7.72;;;13.30;97.80;;;;;;5033210;28;20033;-70
2022/01/01 08:41:31;;;;;;;18.13;6.60;;;13.30;97.70;;;;;;5032589;28;20491;-70
2022/01/01 08:43:57;;;;;;;15.88;7.07;;;13.30;97.60;;;;;;5033006;28;20040;-69
2022/01/01 08:46:23;;;;;;;9.45;5.35;;;13.30;97.60;;;;;;5033009;28;20038;-70
2022/01/01 08:48:48;;;;;;;17.50;7.78;;;13.30;97.60;;;;;;5032788;28;20088;-71
2022/01/01 08:51:21;;;;;;;12.10;6.40;;;13.30;97.60;;;;;;5044262;28;20052;-70
2022/01/01 08:53:48;;;;;;;11.95;6.00;;;13.40;97.70;;;;;;5039907;28;20104;-70
2022/01/01 08:56:14;;;;;;;28.98;10.85;;;13.40;97.70;;;;;;5052433;28;20790;-68
2022/01/01 08:58:41;;;;;;;18.42;6.35;;;13.30;97.70;;;;;;5049511;28;20048;-69
2022/01/01 09:01:07;;;;;;;12.88;5.63;;;13.30;97.70;;;;;;5052802;28;20033;-71
2022/01/01 09:03:37;;;;;;;8.48;4.40;;;13.40;97.80;;;;;;5046608;28;20461;-69
2022/01/01 09:06:04;;;;;;;29.70;9.18;;;13.40;97.70;;;;;;5047108;28;20033;-72
2022/01/01 09:08:32;;;;;;;10.65;4.68;;;13.40;97.70;;;;;;5051019;28;20032;-70
2022/01/01 09:10:58;;;;;;;15.85;6.43;;;13.40;97.70;;;;;;5045998;28;20037;-69
2022/01/01 09:13:23;;;;;;;17.17;7.25;;;13.40;97.70;;;;;;5034046;28;20044;-69
2022/01/01 09:15:49;;;;;;;23.13;6.32;;;13.50;97.70;;;;;;5045632;28;20029;-69
2022/01/01 09:18:15;;;;;;;31.00;9.50;;;13.50;97.60;;;;;;5034304;28;20029;-69
2022/01/01 09:20:41;;;;;;;34.95;12.55;;;13.50;97.60;;;;;;5044424;28;20598;-69
2022/01/01 09:23:06;;;;;;;33.15;10.55;;;13.60;97.60;;;;;;5047000;28;20024;-70
2022/01/01 09:25:33;;;;;;;27.92;9.18;;;13.60;97.50;;;;;;5041191;28;20083;-70
2022/01/01 09:27:59;;;;;;;52.28;14.25;;;13.60;97.50;;;;;;5034215;28;20638;-68
2022/01/01 09:30:24;;;;;;;25.48;8.30;;;13.60;97.40;;;;;;5033536;28;20038;-70
2022/01/01 09:32:51;;;;;;;25.55;6.80;;;13.70;97.40;;;;;;5035968;28;20025;-71
2022/01/01 09:35:18;;;;;;;24.75;9.50;;;13.70;97.40;;;;;;5034931;28;20044;-70
2022/01/01 09:37:44;;;;;;;39.17;11.80;;;13.70;97.40;;;;;;5033013;28;20037;-71
2022/01/01 09:40:10;;;;;;;23.50;8.65;;;13.80;97.30;;;;;;5036702;28;20045;-70
2022/01/01 09:42:39;;;;;;;9.93;5.60;;;13.70;97.30;;;;;;5034324;28;20029;-71
2022/01/01 09:45:09;;;;;;;36.08;11.60;;;13.80;97.20;;;;;;5033466;28;20040;-70
2022/01/01 09:47:36;;;;;;;23.73;9.05;;;13.80;97.20;;;;;;5034201;28;20079;-71
2022/01/01 09:50:05;;;;;;;24.63;9.90;;;13.80;97.20;;;;;;5039302;28;20047;-71
2022/01/01 09:52:31;;;;;;;12.45;2.80;;;13.80;97.20;;;;;;5036156;28;20029;-71
2022/01/01 09:54:56;;;;;;;12.55;5.53;;;13.80;97.20;;;;;;5033939;28;20033;-71
2022/01/01 09:57:22;;;;;;;27.08;11.48;;;13.80;97.20;;;;;;5034313;28;20099;-71
2022/01/01 09:59:48;;;;;;;18.17;9.13;;;13.80;97.30;;;;;;5040007;28;20037;-71
2022/01/01 10:02:14;;;;;;;21.90;9.20;;;13.80;97.30;;;;;;5037983;28;20021;-71
2022/01/01 10:04:43;;;;;;;20.67;8.32;;;13.80;97.40;;;;;;5035855;28;20038;-71
2022/01/01 10:07:12;;;;;;;28.08;10.48;;;13.80;97.40;;;;;;5040535;28;20033;-71
2022/01/01 10:09:38;;;;;;;14.18;4.82;;;13.80;97.40;;;;;;5034668;28;20049;-71
2022/01/01 10:12:06;;;;;;;14.50;6.05;;;13.80;97.40;;;;;;5032787;28;20057;-70
2022/01/01 10:14:40;;;;;;;12.10;6.80;;;13.80;97.40;;;;;;5031074;28;20029;-71
2022/01/01 10:17:24;;;;;;;27.00;9.40;;;13.90;97.40;;;;;;5031231;28;20307;-70
2022/01/01 10:19:53;;;;;;;23.75;8.52;;;13.90;97.50;;;;;;5029348;28;20032;-71
2022/01/01 10:22:23;;;;;;;12.65;6.32;;;13.90;97.50;;;;;;5029417;28;20033;-70
2022/01/01 10:28:00;;;;;;;21.95;7.53;;;13.90;97.50;;;;;;5030552;28;20496;-70
2022/01/01 10:30:35;;;;;;;14.70;6.43;;;13.90;97.50;;;;;;5038174;28;20119;-70
2022/01/01 10:33:17;;;;;;;26.25;9.57;;;13.90;97.50;;;;;;5038457;28;20029;-70
2022/01/01 10:35:45;;;;;;;22.98;10.68;;;13.90;97.60;;;;;;5036444;28;20025;-70
2022/01/01 10:38:15;;;;;;;33.97;12.35;;;14.00;97.60;;;;;;5039165;28;20126;-70
2022/01/01 10:40:41;;;;;;;28.42;9.07;;;13.90;97.70;;;;;;5035712;28;20033;-70
2022/01/01 10:43:07;;;;;;;6.55;4.07;;;14.00;97.70;;;;;;5034857;28;20032;-71
2022/01/01 10:45:41;;;;;;;12.77;5.88;;;14.00;97.70;;;;;;5039833;28;20036;-70
2022/01/01 10:48:22;;;;;;;20.83;8.70;;;14.00;97.70;;;;;;5038133;28;20029;-70
2022/01/01 10:50:53;;;;;;;12.05;6.28;;;14.00;97.60;;;;;;5040473;28;20037;-70
2022/01/01 10:53:28;;;;;;;11.18;4.45;;;14.00;97.60;;;;;;5049399;28;20484;-72
2022/01/01 10:56:03;;;;;;;25.40;11.05;;;14.10;97.60;;;;;;5042480;28;20032;-70
2022/01/01 10:58:32;;;;;;;20.92;8.98;;;14.10;97.60;;;;;;5042607;28;20115;-69
2022/01/01 11:01:05;;;;;;;20.95;6.35;;;14.20;97.60;;;;;;5034251;28;20042;-67
2022/01/01 11:03:37;;;;;;;9.02;4.05;;;14.10;97.60;;;;;;5036180;28;20060;-69
2022/01/01 11:06:12;;;;;;;16.95;7.32;;;14.20;97.60;;;;;;5053101;28;20481;-72
2022/01/01 11:08:43;;;;;;;11.50;3.90;;;14.20;97.70;;;;;;5042579;28;20069;-70
2022/01/01 11:11:10;;;;;;;10.95;4.93;;;14.20;97.70;;;;;;5035007;28;20098;-69
2022/01/01 11:13:37;;;;;;;15.18;6.25;;;14.20;97.70;;;;;;5035507;28;20037;-69
2022/01/01 11:16:04;;;;;;;10.80;3.75;;;14.20;97.80;;;;;;5054505;28;20201;-70
2022/01/01 11:18:31;;;;;;;1.95;1.65;;;14.20;97.90;;;;;;5042691;28;20162;-69
2022/01/01 11:20:59;;;;;;;12.00;3.97;;;14.20;97.90;;;;;;5035227;28;20036;-71
2022/01/01 11:23:25;;;;;;;5.10;3.33;;;14.20;97.90;;;;;;5034237;28;20041;-69
2022/01/01 11:25:52;;;;;;;3.90;2.75;;;14.20;97.90;;;;;;5048588;28;20052;-69
2022/01/01 11:28:18;;;;;;;12.55;4.78;;;14.20;98.00;;;;;;5042126;28;20041;-69
2022/01/01 11:31:10;;;;;;;20.65;6.78;;;14.20;98.00;;;;;;5040960;28;20051;-69
2022/01/01 11:33:43;;;;;;;7.10;3.67;;;14.20;98.00;;;;;;5043107;28;20116;-69
2022/01/01 11:36:21;;;;;;;17.63;6.63;;;14.20;98.00;;;;;;5041405;28;20025;-69
2022/01/01 11:38:47;;;;;;;19.33;7.90;;;14.30;98.10;;;;;;5045619;28;20033;-69
2022/01/01 11:41:15;;;;;;;7.15;3.78;;;14.30;98.00;;;;;;5052159;28;20494;-69
2022/01/01 11:43:55;;;;;;;10.02;5.30;;;14.30;98.00;;;;;;5046093;28;20080;-69
2022/01/01 11:46:24;;;;;;;3.65;2.42;;;14.30;98.00;;;;;;5051824;28;20041;-71
2022/01/01 11:48:55;;;;;;;3.60;2.50;;;14.30;98.00;;;;;;5042440;28;20029;-69
2022/01/01 11:51:42;;;;;;;17.30;5.40;;;14.30;98.10;;;;;;5038131;28;20126;-70
2022/01/01 11:54:09;;;;;;;7.47;3.35;;;14.30;98.10;;;;;;5038134;28;20037;-69
2022/01/01 11:56:49;;;;;;;2.78;1.05;;;14.30;98.10;;;;;;5049214;28;20041;-69
2022/01/01 11:59:22;;;;;;;5.50;3.10;;;14.30;98.10;;;;;;5050204;28;20124;-70
2022/01/01 12:01:49;;;;;;;3.75;1.92;;;14.40;98.20;;;;;;5049453;28;20032;-70
2022/01/01 12:04:37;;;;;;;6.63;2.00;;;14.40;98.20;;;;;;5051173;28;20063;-70
2022/01/01 12:07:18;;;;;;;4.18;2.10;;;14.40;98.20;;;;;;5051418;28;20048;-70
2022/01/01 12:10:09;;;;;;;6.30;3.50;;;14.40;98.20;;;;;;5043318;28;20443;-72
2022/01/01 12:12:39;;;;;;;14.48;4.25;;;14.40;98.20;;;;;;5035974;28;20059;-70
2022/01/01 12:15:18;;;;;;;16.52;4.90;;;14.40;98.20;;;;;;5042897;28;20468;-70
2022/01/01 12:17:45;;;;;;;12.95;3.00;;;14.50;98.20;;;;;;5052231;28;20025;-70
2022/01/01 12:20:19;;;;;;;16.15;5.90;;;14.50;98.20;;;;;;5051758;28;20033;-71
2022/01/01 12:22:46;;;;;;;8.63;3.80;;;14.50;98.10;;;;;;5052431;28;20025;-71
2022/01/01 12:25:26;;;;;;;9.02;2.15;;;14.50;98.10;;;;;;5048855;28;20037;-69
2022/01/01 12:27:54;;;;;;;6.78;3.53;;;14.50;98.10;;;;;;5049227;28;20108;-69
2022/01/01 12:30:32;;;;;;;8.77;4.25;;;14.50;98.10;;;;;;5052173;28;20094;-70
2022/01/01 12:32:58;;;;;;;5.43;3.42;;;14.50;98.20;;;;;;5050845;28;20040;-70
2022/01/01 12:35:42;;;;;;;1.33;1.08;;;14.50;98.10;;;;;;5051978;28;20033;-70
2022/01/01 12:38:11;;;;;;;1.70;1.42;;;14.50;98.20;;;;;;5052085;28;20115;-70
2022/01/01 12:41:05;;;;;;;13.52;3.08;;;14.50;98.20;;;;;;5050946;28;20445;-70
2022/01/01 12:43:47;;;;;;;11.13;2.77;;;14.50;98.20;;;;;;5047235;28;20029;-70